createdAt,value
2018-05-23T00:01:28.969Z,5.17
2018-05-23T00:03:54.997Z,5.93
2018-05-23T00:06:20.975Z,5.10
2018-05-23T00:08:47.055Z,4.87
2018-05-23T00:11:13.012Z,4.00
2018-05-23T00:13:39.296Z,4.57
2018-05-23T00:16:05.171Z,4.27
2018-05-23T00:18:31.107Z,7.50
2018-05-23T00:20:57.312Z,4.20
2018-05-23T00:23:23.176Z,5.00
2018-05-23T00:25:49.076Z,5.07
2018-05-23T00:28:15.038Z,4.50
2018-05-23T00:30:40.968Z,5.53
2018-05-23T00:33:06.940Z,6.17
2018-05-23T00:35:32.859Z,5.07
2018-05-23T00:37:58.739Z,4.90
2018-05-23T00:40:24.621Z,5.77
2018-05-23T00:42:50.615Z,5.33
2018-05-23T00:45:16.584Z,3.97
2018-05-23T00:47:42.461Z,5.87
2018-05-23T00:50:08.385Z,4.93
2018-05-23T00:52:34.304Z,4.30
2018-05-23T00:55:12.645Z,5.73
2018-05-23T00:57:38.619Z,8.97
2018-05-23T01:00:04.616Z,6.27
2018-05-23T01:02:30.551Z,5.43
2018-05-23T01:04:56.432Z,8.00
2018-05-23T01:07:22.380Z,4.57
2018-05-23T01:09:49.224Z,6.17
2018-05-23T01:12:15.556Z,5.93
2018-05-23T01:14:41.497Z,5.97
2018-05-23T01:17:07.425Z,7.30
2018-05-23T01:19:33.381Z,5.57
2018-05-23T01:21:59.365Z,4.93
2018-05-23T01:24:25.307Z,4.80
2018-05-23T01:26:51.186Z,8.90
2018-05-23T01:29:17.228Z,5.27
2018-05-23T01:31:43.213Z,4.90
2018-05-23T01:34:09.247Z,6.80
2018-05-23T01:36:35.132Z,4.47
2018-05-23T01:39:01.100Z,6.63
2018-05-23T01:41:26.979Z,5.53
2018-05-23T01:43:52.932Z,7.07
2018-05-23T01:46:19.402Z,8.43
2018-05-23T01:48:57.810Z,8.57
2018-05-23T01:51:23.744Z,5.80
2018-05-23T01:53:49.640Z,8.63
2018-05-23T01:56:15.578Z,6.93
2018-05-23T01:58:42.064Z,7.53
2018-05-23T02:01:07.973Z,5.90
2018-05-23T02:03:33.867Z,6.70
2018-05-23T02:05:59.793Z,6.03
2018-05-23T02:08:25.739Z,7.07
2018-05-23T02:10:51.763Z,6.10
2018-05-23T02:13:17.706Z,6.90
2018-05-23T02:15:43.603Z,5.20
2018-05-23T02:18:09.492Z,5.20
2018-05-23T02:20:35.856Z,7.00
2018-05-23T02:23:01.851Z,7.90
2018-05-23T02:25:27.745Z,5.83
2018-05-23T02:27:53.665Z,6.37
2018-05-23T02:30:19.572Z,6.50
2018-05-23T02:32:45.510Z,5.87
2018-05-23T02:35:11.577Z,5.33
2018-05-23T02:37:37.480Z,6.00
2018-05-23T02:40:03.363Z,8.23
2018-05-23T02:42:29.286Z,5.90
2018-05-23T02:44:55.280Z,6.87
2018-05-23T02:47:21.261Z,6.57
2018-05-23T02:49:47.198Z,5.47
2018-05-23T02:52:13.193Z,8.07
2018-05-23T02:54:39.066Z,5.40
2018-05-23T02:57:05.060Z,6.93
2018-05-23T02:59:31.033Z,6.43
2018-05-23T03:02:03.377Z,5.30
2018-05-23T03:04:29.363Z,6.67
2018-05-23T03:06:55.315Z,5.80
2018-05-23T03:09:21.299Z,4.67
2018-05-23T03:11:47.368Z,6.37
2018-05-23T03:14:13.263Z,6.37
2018-05-23T03:16:39.210Z,6.50
2018-05-23T03:19:05.259Z,6.23
2018-05-23T03:21:31.128Z,7.17
2018-05-23T03:23:57.003Z,6.87
2018-05-23T03:26:22.927Z,7.97
2018-05-23T03:28:48.815Z,6.43
2018-05-23T03:31:14.700Z,10.17
2018-05-23T03:33:40.637Z,7.40
2018-05-23T03:36:06.528Z,7.40
2018-05-23T03:38:32.409Z,8.27
2018-05-23T03:40:58.349Z,6.70
2018-05-23T03:43:24.236Z,5.90
2018-05-23T03:45:50.133Z,6.63
2018-05-23T03:48:16.057Z,5.87
2018-05-23T03:50:41.948Z,6.10
2018-05-23T03:53:07.849Z,6.20
2018-05-23T03:55:33.783Z,5.77
2018-05-23T03:57:59.769Z,5.50
2018-05-23T04:00:38.060Z,5.43
2018-05-23T04:03:16.395Z,7.10
2018-05-23T04:05:54.567Z,6.60
2018-05-23T04:08:20.487Z,8.73
2018-05-23T04:10:46.369Z,6.40
2018-05-23T04:13:12.367Z,7.47
2018-05-23T04:15:38.264Z,7.53
2018-05-23T04:18:04.143Z,5.97
2018-05-23T04:20:30.114Z,9.03
2018-05-23T04:22:55.984Z,6.73
2018-05-23T04:25:21.864Z,9.37
2018-05-23T04:27:47.867Z,9.20
2018-05-23T04:30:13.756Z,8.23
2018-05-23T04:32:39.636Z,6.60
2018-05-23T04:35:05.573Z,8.90
2018-05-23T04:37:31.447Z,7.70
2018-05-23T04:39:57.341Z,8.27
2018-05-23T04:42:31.837Z,8.50
2018-05-23T04:44:57.765Z,7.23
2018-05-23T04:47:23.893Z,7.67
2018-05-23T04:49:49.820Z,6.97
2018-05-23T04:52:15.692Z,7.93
2018-05-23T04:54:41.563Z,6.37
2018-05-23T04:57:07.497Z,8.93
2018-05-23T04:59:33.396Z,10.60
2018-05-23T05:01:59.271Z,8.87
2018-05-23T05:04:25.183Z,6.43
2018-05-23T05:06:51.068Z,7.70
2018-05-23T05:09:16.943Z,8.87
2018-05-23T05:11:42.863Z,8.50
2018-05-23T05:14:08.929Z,9.03
2018-05-23T05:16:34.800Z,6.53
2018-05-23T05:19:00.811Z,8.33
2018-05-23T05:21:26.635Z,8.17
2018-05-23T05:23:52.510Z,10.73
2018-05-23T05:26:18.418Z,6.63
2018-05-23T05:28:44.327Z,10.70
2018-05-23T05:31:10.217Z,7.30
2018-05-23T05:33:36.140Z,8.53
2018-05-23T05:36:02.035Z,6.23
2018-05-23T05:38:27.903Z,12.27
2018-05-23T05:40:53.830Z,8.83
2018-05-23T05:43:19.719Z,6.17
2018-05-23T05:45:45.642Z,6.07
2018-05-23T05:48:15.179Z,6.73
2018-05-23T05:50:41.073Z,7.57
2018-05-23T05:53:06.962Z,6.83
2018-05-23T05:55:32.908Z,6.87
2018-05-23T05:57:58.797Z,5.87
2018-05-23T06:00:24.707Z,6.00
2018-05-23T06:02:50.635Z,10.63
2018-05-23T06:05:16.638Z,8.73
2018-05-23T06:07:42.603Z,8.50
2018-05-23T06:10:09.594Z,7.00
2018-05-23T06:12:35.491Z,6.07
2018-05-23T06:15:01.423Z,7.10
2018-05-23T06:17:27.420Z,8.10
2018-05-23T06:19:53.308Z,7.87
2018-05-23T06:22:19.379Z,6.97
2018-05-23T06:24:45.279Z,11.73
2018-05-23T06:27:11.156Z,8.03
2018-05-23T06:29:37.027Z,8.27
2018-05-23T06:32:02.987Z,9.13
2018-05-23T06:34:28.932Z,9.17
2018-05-23T06:36:54.849Z,7.13
2018-05-23T06:39:20.778Z,6.53
2018-05-23T06:41:46.696Z,8.17
2018-05-23T06:44:12.581Z,9.67
2018-05-23T06:46:38.540Z,4.57
2018-05-23T06:49:04.425Z,4.80
2018-05-23T06:51:31.335Z,6.40
2018-05-23T06:53:57.252Z,10.47
2018-05-23T06:56:23.374Z,6.10
2018-05-23T06:58:49.272Z,5.77
2018-05-23T07:01:15.199Z,7.03
2018-05-23T07:03:43.148Z,8.20
2018-05-23T07:06:09.011Z,8.70
2018-05-23T07:08:34.947Z,11.30
2018-05-23T07:11:00.851Z,7.33
2018-05-23T07:13:26.742Z,4.23
2018-05-23T07:15:52.695Z,9.70
2018-05-23T07:18:20.601Z,7.37
2018-05-23T07:20:46.528Z,8.73
2018-05-23T07:23:12.444Z,6.43
2018-05-23T07:25:38.327Z,5.63
2018-05-23T07:28:04.228Z,10.80
2018-05-23T07:30:30.148Z,5.77
2018-05-23T07:32:56.032Z,6.43
2018-05-23T07:35:21.908Z,7.63
2018-05-23T07:37:47.827Z,5.17
2018-05-23T07:40:13.700Z,6.80
2018-05-23T07:42:40.370Z,4.60
2018-05-23T07:45:06.285Z,7.77
2018-05-23T07:47:32.160Z,6.47
2018-05-23T07:49:58.029Z,5.63
2018-05-23T07:52:23.955Z,6.33
2018-05-23T07:54:49.852Z,6.30
2018-05-23T07:57:15.723Z,7.63
2018-05-23T07:59:41.647Z,4.47
2018-05-23T08:02:07.536Z,5.87
2018-05-23T08:04:33.425Z,5.50
2018-05-23T08:06:59.343Z,4.23
2018-05-23T08:09:25.243Z,5.50
2018-05-23T08:11:51.116Z,5.17
2018-05-23T08:14:17.069Z,4.03
2018-05-23T08:16:43.010Z,6.10
2018-05-23T08:19:08.889Z,4.43
2018-05-23T08:21:34.863Z,6.53
2018-05-23T08:24:00.770Z,8.33
2018-05-23T08:26:26.675Z,8.00
2018-05-23T08:28:52.607Z,5.93
2018-05-23T08:31:18.494Z,7.57
2018-05-23T08:33:44.396Z,5.27
2018-05-23T08:36:10.356Z,5.73
2018-05-23T08:38:36.223Z,6.30
2018-05-23T08:41:02.107Z,4.57
2018-05-23T08:43:28.059Z,8.47
2018-05-23T08:45:53.976Z,4.67
2018-05-23T08:48:19.834Z,6.27
2018-05-23T08:50:45.768Z,5.40
2018-05-23T08:53:11.661Z,4.33
2018-05-23T08:55:37.543Z,6.70
2018-05-23T08:58:03.494Z,6.53
2018-05-23T09:00:29.383Z,4.47
2018-05-23T09:02:55.247Z,4.87
2018-05-23T09:05:21.176Z,5.93
2018-05-23T09:07:47.321Z,7.10
2018-05-23T09:10:14.105Z,6.37
2018-05-23T09:12:40.061Z,4.13
2018-05-23T09:15:05.927Z,4.07
2018-05-23T09:17:31.854Z,6.53
2018-05-23T09:19:57.779Z,5.83
2018-05-23T09:22:23.646Z,3.43
2018-05-23T09:24:49.515Z,4.07
2018-05-23T09:27:15.435Z,6.33
2018-05-23T09:29:41.312Z,4.30
2018-05-23T09:32:07.202Z,7.30
2018-05-23T09:34:33.216Z,3.77
2018-05-23T09:36:59.097Z,5.00
2018-05-23T09:39:24.983Z,4.07
2018-05-23T09:41:50.959Z,7.93
2018-05-23T09:44:16.841Z,4.60
2018-05-23T09:46:42.740Z,5.70
2018-05-23T09:49:08.688Z,4.57
2018-05-23T09:51:34.604Z,5.30
2018-05-23T09:54:00.471Z,5.20
2018-05-23T09:56:26.420Z,4.67
2018-05-23T09:58:53.381Z,5.63
2018-05-23T10:01:19.278Z,4.37
2018-05-23T10:03:45.291Z,4.57
2018-05-23T10:06:11.188Z,4.60
2018-05-23T10:08:37.075Z,3.93
2018-05-23T10:11:03.000Z,6.40
2018-05-23T10:13:28.883Z,6.40
2018-05-23T10:15:54.767Z,3.93
2018-05-23T10:18:20.735Z,3.47
2018-05-23T10:20:46.640Z,6.97
2018-05-23T10:23:12.542Z,4.53
2018-05-23T10:25:38.465Z,6.90
2018-05-23T10:28:04.344Z,3.63
2018-05-23T10:30:30.260Z,8.70
2018-05-23T10:32:56.184Z,4.83
2018-05-23T10:35:22.072Z,4.87
2018-05-23T10:37:47.960Z,3.63
2018-05-23T10:40:14.930Z,4.47
2018-05-23T10:42:40.817Z,5.90
2018-05-23T10:45:06.744Z,4.20
2018-05-23T10:47:32.660Z,5.00
2018-05-23T10:49:58.539Z,5.13
2018-05-23T10:52:24.520Z,3.47
2018-05-23T10:54:50.387Z,3.57
2018-05-23T10:57:16.398Z,4.93
2018-05-23T10:59:42.440Z,4.17
2018-05-23T11:02:08.361Z,4.30
2018-05-23T11:04:34.240Z,6.20
2018-05-23T11:07:00.667Z,3.17
2018-05-23T11:09:26.609Z,4.13
2018-05-23T11:11:52.511Z,4.87
2018-05-23T11:14:18.413Z,3.87
2018-05-23T11:16:44.358Z,6.93
2018-05-23T11:19:10.327Z,5.83
2018-05-23T11:21:36.256Z,3.80
2018-05-23T11:24:02.199Z,2.40
2018-05-23T11:26:30.144Z,4.20
2018-05-23T11:28:56.028Z,4.47
2018-05-23T11:31:21.987Z,5.53
2018-05-23T11:33:47.900Z,4.67
2018-05-23T11:36:13.786Z,5.60
2018-05-23T11:38:39.716Z,5.07
2018-05-23T11:41:05.609Z,3.53
2018-05-23T11:43:31.516Z,4.03
2018-05-23T11:45:57.468Z,4.80
2018-05-23T11:48:23.355Z,4.18
2018-05-23T11:50:49.251Z,6.55
2018-05-23T11:53:15.207Z,6.45
2018-05-23T11:55:41.104Z,3.65
2018-05-23T11:58:07.080Z,3.50
2018-05-23T12:00:33.048Z,5.57
2018-05-23T12:02:58.936Z,2.95
2018-05-23T12:05:24.808Z,5.43
2018-05-23T12:07:50.781Z,5.22
2018-05-23T12:10:16.731Z,5.37
2018-05-23T12:12:42.616Z,3.15
2018-05-23T12:15:08.579Z,3.67
2018-05-23T12:17:34.480Z,3.42
2018-05-23T12:20:00.423Z,2.40
2018-05-23T12:22:26.380Z,4.93
2018-05-23T12:24:52.272Z,2.83
2018-05-23T12:27:18.241Z,5.03
2018-05-23T12:29:44.343Z,3.70
2018-05-23T12:32:10.242Z,4.33
2018-05-23T12:34:36.147Z,2.50
2018-05-23T12:37:02.104Z,5.40
2018-05-23T12:39:27.981Z,3.23
2018-05-23T12:41:53.872Z,4.97
2018-05-23T12:44:19.817Z,5.87
2018-05-23T12:46:45.983Z,3.40
2018-05-23T12:49:11.976Z,4.77
2018-05-23T12:51:37.891Z,3.43
2018-05-23T12:54:03.766Z,5.87
2018-05-23T12:56:29.668Z,2.53
2018-05-23T12:58:55.615Z,5.20
2018-05-23T13:01:21.628Z,3.97
2018-05-23T13:03:47.540Z,4.47
2018-05-23T13:06:13.467Z,3.83
2018-05-23T13:08:39.327Z,4.20
2018-05-23T13:11:05.199Z,6.17
2018-05-23T13:13:31.124Z,4.17
2018-05-23T13:15:58.040Z,3.43
2018-05-23T13:18:23.910Z,3.33
2018-05-23T13:20:49.939Z,6.63
2018-05-23T13:23:15.843Z,5.37
2018-05-23T13:25:41.737Z,5.37
2018-05-23T13:28:07.676Z,5.37
2018-05-23T13:30:33.604Z,4.83
2018-05-23T13:32:59.505Z,7.07
2018-05-23T13:35:25.433Z,2.97
2018-05-23T13:37:51.351Z,3.20
2018-05-23T13:40:17.284Z,6.80
2018-05-23T13:42:43.236Z,5.73
2018-05-23T13:45:09.111Z,5.40
2018-05-23T13:47:35.000Z,3.37
2018-05-23T13:50:00.999Z,2.77
2018-05-23T13:52:26.879Z,2.67
2018-05-23T13:54:52.752Z,3.73
2018-05-23T13:57:19.791Z,2.67
2018-05-23T13:59:45.697Z,3.07
2018-05-23T14:02:11.589Z,3.53
2018-05-23T14:04:37.544Z,3.03
2018-05-23T14:07:03.439Z,3.27
2018-05-23T14:09:29.331Z,4.37
2018-05-23T14:11:55.258Z,4.40
2018-05-23T14:14:21.139Z,3.30
2018-05-23T14:16:47.027Z,3.63
2018-05-23T14:19:13.020Z,3.33
2018-05-23T14:21:38.952Z,3.27
2018-05-23T14:24:04.838Z,2.77
2018-05-23T14:26:30.759Z,3.10
2018-05-23T14:28:57.704Z,4.37
2018-05-23T14:31:23.582Z,3.40
2018-05-23T14:33:49.499Z,2.83
2018-05-23T14:36:15.387Z,3.03
2018-05-23T14:38:41.281Z,4.43
2018-05-23T14:41:07.261Z,3.60
2018-05-23T14:43:33.165Z,3.87
2018-05-23T14:45:59.057Z,3.00
2018-05-23T14:48:25.067Z,4.43
2018-05-23T14:50:50.953Z,3.00
2018-05-23T14:53:21.498Z,2.90
2018-05-23T14:55:47.751Z,3.07
2018-05-23T14:58:13.651Z,2.47
2018-05-23T15:00:39.545Z,2.60
2018-05-23T15:03:05.679Z,6.40
2018-05-23T15:05:31.461Z,3.17
2018-05-23T15:07:57.433Z,3.60
2018-05-23T15:10:23.405Z,3.73
2018-05-23T15:12:49.278Z,4.90
2018-05-23T15:15:15.160Z,5.53
2018-05-23T15:17:41.136Z,4.13
2018-05-23T15:20:07.087Z,3.00
2018-05-23T15:22:32.994Z,3.63
2018-05-23T15:25:03.192Z,3.80
2018-05-23T15:27:29.085Z,2.63
2018-05-23T15:29:54.975Z,3.10
2018-05-23T15:32:20.912Z,6.97
2018-05-23T15:34:46.813Z,4.22
2018-05-23T15:37:12.751Z,3.67
2018-05-23T15:39:38.675Z,2.40
2018-05-23T15:42:04.563Z,2.83
2018-05-23T15:44:30.507Z,2.83
2018-05-23T15:46:56.422Z,3.53
2018-05-23T15:49:22.335Z,5.30
2018-05-23T15:51:48.200Z,7.40
2018-05-23T15:54:14.412Z,3.30
2018-05-23T15:56:40.334Z,2.40
2018-05-23T15:59:06.209Z,3.33
2018-05-23T16:01:32.152Z,2.20
2018-05-23T16:03:58.044Z,2.10
2018-05-23T16:06:25.017Z,4.30
2018-05-23T16:08:50.970Z,4.10
2018-05-23T16:11:16.851Z,3.60
2018-05-23T16:13:42.740Z,2.67
2018-05-23T16:16:08.667Z,4.57
2018-05-23T16:18:34.567Z,3.60
2018-05-23T16:21:00.449Z,3.87
2018-05-23T16:23:26.472Z,4.40
2018-05-23T16:25:52.366Z,3.33
2018-05-23T16:28:18.311Z,2.77
2018-05-23T16:30:44.251Z,4.07
2018-05-23T16:33:10.143Z,3.73
2018-05-23T16:35:46.187Z,3.60
2018-05-23T16:38:12.057Z,2.20
2018-05-23T16:40:37.935Z,2.90
2018-05-23T16:43:03.856Z,2.67
2018-05-23T16:45:29.734Z,3.07
2018-05-23T16:47:55.619Z,3.90
2018-05-23T16:50:21.597Z,3.10
2018-05-23T16:52:47.513Z,5.17
2018-05-23T16:55:13.400Z,2.30
2018-05-23T16:57:39.312Z,2.47
2018-05-23T17:00:05.196Z,4.60
2018-05-23T17:02:31.089Z,2.53
2018-05-23T17:04:57.023Z,3.67
2018-05-23T17:07:22.912Z,5.47
2018-05-23T17:09:48.799Z,4.07
2018-05-23T17:12:14.759Z,4.83
2018-05-23T17:14:40.723Z,2.90
2018-05-23T17:17:06.619Z,2.43
2018-05-23T17:19:32.564Z,3.80
2018-05-23T17:21:58.463Z,3.13
2018-05-23T17:24:24.423Z,6.03
2018-05-23T17:26:50.350Z,2.57
2018-05-23T17:29:16.248Z,2.90
2018-05-23T17:31:42.127Z,1.80
2018-05-23T17:34:08.698Z,2.53
2018-05-23T17:36:34.572Z,3.20
2018-05-23T17:39:00.487Z,3.80
2018-05-23T17:41:27.775Z,4.33
2018-05-23T17:43:54.796Z,2.33
2018-05-23T17:46:20.662Z,2.27
2018-05-23T17:48:46.612Z,2.67
2018-05-23T17:51:12.597Z,1.77
2018-05-23T17:53:38.499Z,2.97
2018-05-23T17:56:04.436Z,5.53
2018-05-23T17:58:30.471Z,3.53
2018-05-23T18:00:56.366Z,2.93
2018-05-23T18:03:22.415Z,2.03
2018-05-23T18:05:48.335Z,3.00
2018-05-23T18:08:14.255Z,3.23
2018-05-23T18:10:40.163Z,3.27
2018-05-23T18:13:06.047Z,2.17
2018-05-23T18:15:31.952Z,1.80
2018-05-23T18:17:57.897Z,1.77
2018-05-23T18:20:23.801Z,2.00
2018-05-23T18:22:49.671Z,3.00
2018-05-23T18:25:15.726Z,4.97
2018-05-23T18:27:41.640Z,2.13
2018-05-23T18:30:07.508Z,2.23
2018-05-23T18:32:33.442Z,4.80
2018-05-23T18:35:00.323Z,2.57
2018-05-23T18:37:26.611Z,3.00
2018-05-23T18:39:52.625Z,2.63
2018-05-23T18:42:18.525Z,3.60
2018-05-23T18:44:44.950Z,2.47
2018-05-23T18:47:12.589Z,1.90
2018-05-23T18:49:39.023Z,4.00
2018-05-23T18:52:05.438Z,4.70
2018-05-23T18:54:32.111Z,4.60
2018-05-23T18:56:58.052Z,4.93
2018-05-23T18:59:23.939Z,2.77
2018-05-23T19:01:50.586Z,3.30
2018-05-23T19:04:17.159Z,1.90
2018-05-23T19:06:43.171Z,2.10
2018-05-23T19:09:09.117Z,2.03
2018-05-23T19:11:37.496Z,2.47
2018-05-23T19:14:03.468Z,2.50
2018-05-23T19:16:29.404Z,2.07
2018-05-23T19:18:55.333Z,3.87
2018-05-23T19:21:21.216Z,2.27
2018-05-23T19:23:47.749Z,3.13
2018-05-23T19:26:13.948Z,2.90
2018-05-23T19:28:39.843Z,2.83
2018-05-23T19:31:05.851Z,3.07
2018-05-23T19:33:32.022Z,2.97
2018-05-23T19:35:58.030Z,4.23
2018-05-23T19:38:24.059Z,2.90
2018-05-23T19:40:49.947Z,2.43
2018-05-23T19:43:15.888Z,3.60
2018-05-23T19:45:42.049Z,2.40
2018-05-23T19:48:08.495Z,2.17
2018-05-23T19:50:35.542Z,2.80
2018-05-23T19:53:01.704Z,3.83
2018-05-23T19:55:27.431Z,4.87
2018-05-23T19:57:53.658Z,3.17
2018-05-23T20:00:19.768Z,6.93
2018-05-23T20:02:45.833Z,5.50
2018-05-23T20:05:11.840Z,2.83
2018-05-23T20:07:37.991Z,3.97
2018-05-23T20:10:04.655Z,4.73
2018-05-23T20:12:30.525Z,3.20
2018-05-23T20:14:56.579Z,2.57
2018-05-23T20:17:22.461Z,4.37
2018-05-23T20:19:48.359Z,3.27
2018-05-23T20:22:15.413Z,5.17
2018-05-23T20:24:41.301Z,2.53
2018-05-23T20:27:07.167Z,3.30
2018-05-23T20:29:33.096Z,3.50
2018-05-23T20:31:59.013Z,4.63
2018-05-23T20:34:24.898Z,3.40
2018-05-23T20:36:50.811Z,4.00
2018-05-23T20:39:16.685Z,3.33
2018-05-23T20:41:42.563Z,3.90
2018-05-23T20:44:12.956Z,3.40
2018-05-23T20:46:38.950Z,3.83
2018-05-23T20:49:04.984Z,3.83
2018-05-23T20:51:30.899Z,4.70
2018-05-23T20:53:56.763Z,3.87
2018-05-23T20:56:22.649Z,5.23
2018-05-23T20:58:48.606Z,5.47
2018-05-23T21:01:14.469Z,3.37
2018-05-23T21:03:40.333Z,5.50
2018-05-23T21:06:06.264Z,4.70
2018-05-23T21:08:32.165Z,4.80
2018-05-23T21:10:58.051Z,3.60
2018-05-23T21:13:23.977Z,4.33
2018-05-23T21:15:49.852Z,3.73
2018-05-23T21:18:15.724Z,4.37
2018-05-23T21:20:41.655Z,4.40
2018-05-23T21:23:07.542Z,3.87
2018-05-23T21:25:33.433Z,8.37
2018-05-23T21:27:59.388Z,5.37
2018-05-23T21:30:25.279Z,4.43
2018-05-23T21:32:51.147Z,7.63
2018-05-23T21:35:17.065Z,6.40
2018-05-23T21:37:42.947Z,6.30
2018-05-23T21:40:08.828Z,3.30
2018-05-23T21:42:34.749Z,4.57
2018-05-23T21:45:00.616Z,5.03
2018-05-23T21:47:26.501Z,2.80
2018-05-23T21:49:52.462Z,3.43
2018-05-23T21:52:21.780Z,4.50
2018-05-23T21:54:47.656Z,3.73
2018-05-23T21:57:13.572Z,6.47
2018-05-23T21:59:39.458Z,4.63
2018-05-23T22:02:05.335Z,4.37
2018-05-23T22:04:31.255Z,3.37
2018-05-23T22:06:57.151Z,5.33
2018-05-23T22:09:23.052Z,5.17
2018-05-23T22:11:49.024Z,4.83
2018-05-23T22:14:14.919Z,5.57
2018-05-23T22:16:40.808Z,4.83
2018-05-23T22:19:06.728Z,3.63
2018-05-23T22:21:32.617Z,6.20
2018-05-23T22:23:58.498Z,5.07
2018-05-23T22:26:24.413Z,4.40
2018-05-23T22:28:50.287Z,4.67
2018-05-23T22:31:16.239Z,5.73
2018-05-23T22:33:42.150Z,4.73
2018-05-23T22:36:08.029Z,3.63
2018-05-23T22:38:33.931Z,4.20
2018-05-23T22:40:59.892Z,5.17
2018-05-23T22:43:25.772Z,4.83
2018-05-23T22:45:51.667Z,4.70
2018-05-23T22:48:17.584Z,5.10
2018-05-23T22:50:43.511Z,6.23
2018-05-23T22:53:09.405Z,4.23
2018-05-23T22:55:35.316Z,5.37
2018-05-23T22:58:01.191Z,3.30
2018-05-23T23:00:27.095Z,4.97
2018-05-23T23:02:53.035Z,4.87
2018-05-23T23:05:18.896Z,6.43
2018-05-23T23:07:44.774Z,3.50
2018-05-23T23:10:10.688Z,4.70
2018-05-23T23:12:36.571Z,3.80
2018-05-23T23:15:02.473Z,4.53
2018-05-23T23:17:28.404Z,5.53
2018-05-23T23:19:54.280Z,4.53
2018-05-23T23:22:32.516Z,5.03
2018-05-23T23:24:58.398Z,3.67
2018-05-23T23:27:24.259Z,3.83
2018-05-23T23:29:50.164Z,4.37
2018-05-23T23:32:16.059Z,4.20
2018-05-23T23:34:41.953Z,4.10
2018-05-23T23:37:07.882Z,4.67
2018-05-23T23:39:34.590Z,4.67
2018-05-23T23:42:00.459Z,4.70
2018-05-23T23:44:26.384Z,3.83
2018-05-23T23:46:52.283Z,6.07
2018-05-23T23:49:18.158Z,4.87
2018-05-23T23:51:44.234Z,5.67
2018-05-23T23:54:10.095Z,7.00
2018-05-23T23:56:35.968Z,5.90
2018-05-23T23:59:01.899Z,5.50
